sensor_id;sensor_type;location;lat;lon;timestamp;P1;durP1;ratioP1;P2;durP2;ratioP2
2934;SDS011;2462;51.456;7.248;2023-03-12T00:01:24;4.53;;;4.13;;
2934;SDS011;2462;51.456;7.248;2023-03-12T00:03:51;3.60;;;3.30;;
2934;SDS011;2462;51.456;7.248;2023-03-12T00:06:21;6.37;;;4.60;;
2934;SDS011;2462;51.456;7.248;2023-03-12T00:08:47;5.87;;;3.60;;
2934;SDS011;2462;51.456;7.248;2023-03-12T00:11:14;4.93;;;3.90;;
2934;SDS011;2462;51.456;7.248;2023-03-12T00:13:40;3.80;;;3.50;;
2934;SDS011;2462;51.456;7.248;2023-03-12T00:16:07;4.17;;;3.47;;
2934;SDS011;2462;51.456;7.248;2023-03-12T00:18:34;4.60;;;3.87;;
2934;SDS011;2462;51.456;7.248;2023-03-12T00:21:00;4.27;;;3.97;;
2934;SDS011;2462;51.456;7.248;2023-03-12T00:23:26;4.33;;;4.00;;
2934;SDS011;2462;51.456;7.248;2023-03-12T00:25:52;4.10;;;3.70;;
2934;SDS011;2462;51.456;7.248;2023-03-12T00:28:18;4.27;;;3.97;;
2934;SDS011;2462;51.456;7.248;2023-03-12T00:30:44;4.83;;;4.43;;
2934;SDS011;2462;51.456;7.248;2023-03-12T00:33:10;4.10;;;3.70;;
2934;SDS011;2462;51.456;7.248;2023-03-12T00:35:37;5.20;;;4.07;;
2934;SDS011;2462;51.456;7.248;2023-03-12T00:38:03;3.90;;;3.50;;
2934;SDS011;2462;51.456;7.248;2023-03-12T00:40:29;4.10;;;3.80;;
2934;SDS011;2462;51.456;7.248;2023-03-12T00:42:55;3.90;;;3.60;;
2934;SDS011;2462;51.456;7.248;2023-03-12T00:45:21;5.67;;;4.30;;
2934;SDS011;2462;51.456;7.248;2023-03-12T00:47:47;4.10;;;3.60;;
2934;SDS011;2462;51.456;7.248;2023-03-12T00:50:13;3.97;;;3.57;;
2934;SDS011;2462;51.456;7.248;2023-03-12T00:52:39;5.40;;;4.00;;
2934;SDS011;2462;51.456;7.248;2023-03-12T00:55:05;4.07;;;3.67;;
2934;SDS011;2462;51.456;7.248;2023-03-12T00:57:31;4.53;;;4.10;;
2934;SDS011;2462;51.456;7.248;2023-03-12T00:59:57;3.83;;;3.47;;
2934;SDS011;2462;51.456;7.248;2023-03-12T01:02:23;4.43;;;3.30;;
2934;SDS011;2462;51.456;7.248;2023-03-12T01:04:49;3.27;;;2.87;;
2934;SDS011;2462;51.456;7.248;2023-03-12T01:07:15;4.40;;;3.60;;
2934;SDS011;2462;51.456;7.248;2023-03-12T01:09:41;3.83;;;3.30;;
2934;SDS011;2462;51.456;7.248;2023-03-12T01:12:07;4.00;;;3.60;;
2934;SDS011;2462;51.456;7.248;2023-03-12T01:14:33;5.13;;;3.73;;
2934;SDS011;2462;51.456;7.248;2023-03-12T01:16:59;5.00;;;3.33;;
2934;SDS011;2462;51.456;7.248;2023-03-12T01:19:25;3.63;;;3.33;;
2934;SDS011;2462;51.456;7.248;2023-03-12T01:21:51;4.00;;;3.60;;
2934;SDS011;2462;51.456;7.248;2023-03-12T01:24:17;3.97;;;3.30;;
2934;SDS011;2462;51.456;7.248;2023-03-12T01:26:43;3.97;;;3.47;;
2934;SDS011;2462;51.456;7.248;2023-03-12T01:29:09;3.80;;;3.17;;
2934;SDS011;2462;51.456;7.248;2023-03-12T01:31:35;3.80;;;3.33;;
2934;SDS011;2462;51.456;7.248;2023-03-12T01:34:01;3.83;;;3.30;;
2934;SDS011;2462;51.456;7.248;2023-03-12T01:36:28;4.13;;;3.80;;
2934;SDS011;2462;51.456;7.248;2023-03-12T01:38:55;3.83;;;3.30;;
2934;SDS011;2462;51.456;7.248;2023-03-12T01:41:22;3.17;;;2.87;;
2934;SDS011;2462;51.456;7.248;2023-03-12T01:43:48;4.23;;;3.33;;
2934;SDS011;2462;51.456;7.248;2023-03-12T01:48:45;4.03;;;3.73;;
2934;SDS011;2462;51.456;7.248;2023-03-12T01:51:12;3.30;;;3.00;;
2934;SDS011;2462;51.456;7.248;2023-03-12T01:53:39;3.40;;;3.10;;
2934;SDS011;2462;51.456;7.248;2023-03-12T01:56:07;3.50;;;3.20;;
2934;SDS011;2462;51.456;7.248;2023-03-12T01:58:33;3.30;;;3.00;;
2934;SDS011;2462;51.456;7.248;2023-03-12T02:01:01;3.10;;;2.80;;
2934;SDS011;2462;51.456;7.248;2023-03-12T02:03:27;4.53;;;3.23;;
2934;SDS011;2462;51.456;7.248;2023-03-12T02:05:54;3.50;;;3.10;;
2934;SDS011;2462;51.456;7.248;2023-03-12T02:08:22;4.20;;;3.10;;
2934;SDS011;2462;51.456;7.248;2023-03-12T02:10:48;3.97;;;3.10;;
2934;SDS011;2462;51.456;7.248;2023-03-12T02:13:14;4.30;;;3.40;;
2934;SDS011;2462;51.456;7.248;2023-03-12T02:15:41;3.60;;;3.20;;
2934;SDS011;2462;51.456;7.248;2023-03-12T02:18:07;3.57;;;2.83;;
2934;SDS011;2462;51.456;7.248;2023-03-12T02:23:29;3.70;;;3.00;;
2934;SDS011;2462;51.456;7.248;2023-03-12T02:25:56;3.50;;;3.20;;
2934;SDS011;2462;51.456;7.248;2023-03-12T02:28:24;3.63;;;2.93;;
2934;SDS011;2462;51.456;7.248;2023-03-12T02:30:51;2.70;;;2.50;;
2934;SDS011;2462;51.456;7.248;2023-03-12T02:33:18;5.23;;;2.63;;
2934;SDS011;2462;51.456;7.248;2023-03-12T02:35:45;4.47;;;3.43;;
2934;SDS011;2462;51.456;7.248;2023-03-12T02:40:57;3.83;;;3.13;;
2934;SDS011;2462;51.456;7.248;2023-03-12T02:43:25;3.17;;;2.90;;
2934;SDS011;2462;51.456;7.248;2023-03-12T02:45:51;3.87;;;3.30;;
2934;SDS011;2462;51.456;7.248;2023-03-12T02:48:17;3.77;;;2.63;;
2934;SDS011;2462;51.456;7.248;2023-03-12T02:50:43;3.53;;;3.03;;
2934;SDS011;2462;51.456;7.248;2023-03-12T02:53:09;3.70;;;2.90;;
2934;SDS011;2462;51.456;7.248;2023-03-12T02:55:35;3.40;;;3.00;;
2934;SDS011;2462;51.456;7.248;2023-03-12T02:58:01;3.27;;;2.70;;
2934;SDS011;2462;51.456;7.248;2023-03-12T03:00:27;2.90;;;2.60;;
2934;SDS011;2462;51.456;7.248;2023-03-12T03:02:57;3.60;;;2.90;;
2934;SDS011;2462;51.456;7.248;2023-03-12T03:05:23;3.07;;;2.60;;
2934;SDS011;2462;51.456;7.248;2023-03-12T03:07:49;4.83;;;3.00;;
2934;SDS011;2462;51.456;7.248;2023-03-12T03:10:15;2.87;;;2.67;;
2934;SDS011;2462;51.456;7.248;2023-03-12T03:12:41;4.20;;;3.00;;
2934;SDS011;2462;51.456;7.248;2023-03-12T03:15:08;3.40;;;2.80;;
2934;SDS011;2462;51.456;7.248;2023-03-12T03:17:35;2.90;;;2.60;;
2934;SDS011;2462;51.456;7.248;2023-03-12T03:20:01;2.60;;;2.40;;
2934;SDS011;2462;51.456;7.248;2023-03-12T03:22:31;4.40;;;2.83;;
2934;SDS011;2462;51.456;7.248;2023-03-12T03:24:57;2.57;;;2.37;;
2934;SDS011;2462;51.456;7.248;2023-03-12T03:27:23;3.13;;;2.93;;
2934;SDS011;2462;51.456;7.248;2023-03-12T03:29:49;3.13;;;2.53;;
2934;SDS011;2462;51.456;7.248;2023-03-12T03:32:15;4.40;;;2.57;;
2934;SDS011;2462;51.456;7.248;2023-03-12T03:34:41;3.20;;;2.90;;
2934;SDS011;2462;51.456;7.248;2023-03-12T03:37:07;3.03;;;2.83;;
2934;SDS011;2462;51.456;7.248;2023-03-12T03:39:33;3.07;;;2.63;;
2934;SDS011;2462;51.456;7.248;2023-03-12T03:41:59;2.70;;;2.33;;
2934;SDS011;2462;51.456;7.248;2023-03-12T03:44:25;2.90;;;2.23;;
2934;SDS011;2462;51.456;7.248;2023-03-12T03:46:51;2.53;;;2.37;;
2934;SDS011;2462;51.456;7.248;2023-03-12T03:49:19;4.30;;;2.93;;
2934;SDS011;2462;51.456;7.248;2023-03-12T03:51:45;2.00;;;1.90;;
2934;SDS011;2462;51.456;7.248;2023-03-12T03:54:11;2.73;;;2.50;;
2934;SDS011;2462;51.456;7.248;2023-03-12T03:56:38;3.70;;;2.60;;
2934;SDS011;2462;51.456;7.248;2023-03-12T03:59:05;2.90;;;2.60;;
2934;SDS011;2462;51.456;7.248;2023-03-12T04:01:31;3.90;;;2.53;;
2934;SDS011;2462;51.456;7.248;2023-03-12T04:03:57;3.53;;;2.40;;
2934;SDS011;2462;51.456;7.248;2023-03-12T04:06:23;2.90;;;2.37;;
2934;SDS011;2462;51.456;7.248;2023-03-12T04:08:49;4.50;;;2.70;;
2934;SDS011;2462;51.456;7.248;2023-03-12T04:11:19;4.10;;;2.50;;
2934;SDS011;2462;51.456;7.248;2023-03-12T04:13:46;3.00;;;2.70;;
2934;SDS011;2462;51.456;7.248;2023-03-12T04:16:12;2.60;;;2.40;;
2934;SDS011;2462;51.456;7.248;2023-03-12T04:18:38;2.77;;;2.57;;
2934;SDS011;2462;51.456;7.248;2023-03-12T04:21:05;3.90;;;3.00;;
2934;SDS011;2462;51.456;7.248;2023-03-12T04:23:31;2.67;;;2.47;;
2934;SDS011;2462;51.456;7.248;2023-03-12T04:25:57;2.33;;;2.13;;
2934;SDS011;2462;51.456;7.248;2023-03-12T04:28:23;2.40;;;2.20;;
2934;SDS011;2462;51.456;7.248;2023-03-12T04:30:53;3.07;;;2.77;;
2934;SDS011;2462;51.456;7.248;2023-03-12T04:33:19;3.10;;;2.50;;
2934;SDS011;2462;51.456;7.248;2023-03-12T04:35:49;3.07;;;2.80;;
2934;SDS011;2462;51.456;7.248;2023-03-12T04:38:15;4.23;;;2.43;;
2934;SDS011;2462;51.456;7.248;2023-03-12T04:40:41;2.70;;;2.50;;
2934;SDS011;2462;51.456;7.248;2023-03-12T04:43:07;6.20;;;2.57;;
2934;SDS011;2462;51.456;7.248;2023-03-12T04:45:33;3.60;;;2.50;;
2934;SDS011;2462;51.456;7.248;2023-03-12T04:47:59;2.40;;;2.20;;
2934;SDS011;2462;51.456;7.248;2023-03-12T04:50:25;2.30;;;2.10;;
2934;SDS011;2462;51.456;7.248;2023-03-12T04:52:51;2.07;;;1.87;;
2934;SDS011;2462;51.456;7.248;2023-03-12T04:55:17;2.60;;;2.40;;
2934;SDS011;2462;51.456;7.248;2023-03-12T04:57:43;2.70;;;2.50;;
2934;SDS011;2462;51.456;7.248;2023-03-12T05:00:09;2.03;;;1.93;;
2934;SDS011;2462;51.456;7.248;2023-03-12T05:02:37;2.43;;;2.23;;
2934;SDS011;2462;51.456;7.248;2023-03-12T05:05:03;4.40;;;2.80;;
2934;SDS011;2462;51.456;7.248;2023-03-12T05:07:29;7.13;;;2.40;;
2934;SDS011;2462;51.456;7.248;2023-03-12T05:09:55;2.20;;;2.00;;
2934;SDS011;2462;51.456;7.248;2023-03-12T05:12:21;3.00;;;2.70;;
2934;SDS011;2462;51.456;7.248;2023-03-12T05:14:47;4.80;;;2.50;;
2934;SDS011;2462;51.456;7.248;2023-03-12T05:17:13;2.33;;;2.13;;
2934;SDS011;2462;51.456;7.248;2023-03-12T05:19:39;2.30;;;2.10;;
2934;SDS011;2462;51.456;7.248;2023-03-12T05:22:05;2.67;;;2.20;;
2934;SDS011;2462;51.456;7.248;2023-03-12T05:24:31;3.30;;;2.30;;
2934;SDS011;2462;51.456;7.248;2023-03-12T05:26:57;2.20;;;2.10;;
2934;SDS011;2462;51.456;7.248;2023-03-12T05:29:23;2.77;;;2.50;;
2934;SDS011;2462;51.456;7.248;2023-03-12T05:31:49;2.83;;;2.63;;
2934;SDS011;2462;51.456;7.248;2023-03-12T05:34:15;2.67;;;2.43;;
2934;SDS011;2462;51.456;7.248;2023-03-12T05:36:41;2.07;;;1.93;;
2934;SDS011;2462;51.456;7.248;2023-03-12T05:39:07;2.83;;;2.60;;
2934;SDS011;2462;51.456;7.248;2023-03-12T05:41:33;2.20;;;2.00;;
2934;SDS011;2462;51.456;7.248;2023-03-12T05:43:59;2.20;;;2.10;;
2934;SDS011;2462;51.456;7.248;2023-03-12T05:46:26;2.43;;;2.23;;
2934;SDS011;2462;51.456;7.248;2023-03-12T05:48:52;2.30;;;2.20;;
2934;SDS011;2462;51.456;7.248;2023-03-12T05:51:18;2.50;;;2.30;;
2934;SDS011;2462;51.456;7.248;2023-03-12T05:53:45;3.70;;;2.80;;
2934;SDS011;2462;51.456;7.248;2023-03-12T05:56:12;6.30;;;2.50;;
2934;SDS011;2462;51.456;7.248;2023-03-12T05:58:38;2.53;;;2.33;;
2934;SDS011;2462;51.456;7.248;2023-03-12T06:01:12;3.10;;;2.20;;
2934;SDS011;2462;51.456;7.248;2023-03-12T06:03:38;2.83;;;2.20;;
2934;SDS011;2462;51.456;7.248;2023-03-12T06:06:06;2.90;;;2.60;;
2934;SDS011;2462;51.456;7.248;2023-03-12T06:08:32;2.60;;;2.40;;
2934;SDS011;2462;51.456;7.248;2023-03-12T06:10:58;2.30;;;2.10;;
2934;SDS011;2462;51.456;7.248;2023-03-12T06:13:24;2.40;;;1.97;;
2934;SDS011;2462;51.456;7.248;2023-03-12T06:15:52;2.97;;;2.20;;
2934;SDS011;2462;51.456;7.248;2023-03-12T06:18:18;2.40;;;2.20;;
2934;SDS011;2462;51.456;7.248;2023-03-12T06:20:44;2.47;;;2.27;;
2934;SDS011;2462;51.456;7.248;2023-03-12T06:23:10;2.87;;;2.47;;
2934;SDS011;2462;51.456;7.248;2023-03-12T06:25:36;3.93;;;2.87;;
2934;SDS011;2462;51.456;7.248;2023-03-12T06:28:02;2.07;;;1.97;;
2934;SDS011;2462;51.456;7.248;2023-03-12T06:30:28;2.17;;;1.90;;
2934;SDS011;2462;51.456;7.248;2023-03-12T06:32:54;2.50;;;2.17;;
2934;SDS011;2462;51.456;7.248;2023-03-12T06:35:20;3.70;;;1.87;;
2934;SDS011;2462;51.456;7.248;2023-03-12T06:37:46;2.20;;;2.00;;
2934;SDS011;2462;51.456;7.248;2023-03-12T06:40:12;3.57;;;2.23;;
2934;SDS011;2462;51.456;7.248;2023-03-12T06:42:38;2.37;;;2.17;;
2934;SDS011;2462;51.456;7.248;2023-03-12T06:45:04;1.93;;;1.83;;
2934;SDS011;2462;51.456;7.248;2023-03-12T06:47:31;2.13;;;1.93;;
2934;SDS011;2462;51.456;7.248;2023-03-12T06:49:57;2.23;;;2.03;;
2934;SDS011;2462;51.456;7.248;2023-03-12T06:52:23;2.43;;;2.10;;
2934;SDS011;2462;51.456;7.248;2023-03-12T06:54:49;2.17;;;1.93;;
2934;SDS011;2462;51.456;7.248;2023-03-12T06:57:15;2.60;;;2.40;;
2934;SDS011;2462;51.456;7.248;2023-03-12T06:59:41;2.97;;;2.10;;
2934;SDS011;2462;51.456;7.248;2023-03-12T07:02:08;4.80;;;3.30;;
2934;SDS011;2462;51.456;7.248;2023-03-12T07:04:35;2.30;;;2.10;;
2934;SDS011;2462;51.456;7.248;2023-03-12T07:07:01;5.33;;;2.37;;
2934;SDS011;2462;51.456;7.248;2023-03-12T07:09:28;2.50;;;2.30;;
2934;SDS011;2462;51.456;7.248;2023-03-12T07:11:54;3.80;;;2.63;;
2934;SDS011;2462;51.456;7.248;2023-03-12T07:14:20;5.10;;;2.37;;
2934;SDS011;2462;51.456;7.248;2023-03-12T07:16:46;3.60;;;2.30;;
2934;SDS011;2462;51.456;7.248;2023-03-12T07:19:12;2.53;;;2.33;;
2934;SDS011;2462;51.456;7.248;2023-03-12T07:21:38;2.00;;;1.90;;
2934;SDS011;2462;51.456;7.248;2023-03-12T07:24:05;2.60;;;2.40;;
2934;SDS011;2462;51.456;7.248;2023-03-12T07:26:33;3.57;;;2.40;;
2934;SDS011;2462;51.456;7.248;2023-03-12T07:28:59;2.07;;;1.87;;
2934;SDS011;2462;51.456;7.248;2023-03-12T07:31:25;2.43;;;2.20;;
2934;SDS011;2462;51.456;7.248;2023-03-12T07:33:51;5.70;;;2.10;;
2934;SDS011;2462;51.456;7.248;2023-03-12T07:36:17;2.23;;;2.03;;
2934;SDS011;2462;51.456;7.248;2023-03-12T07:38:43;2.07;;;1.87;;
2934;SDS011;2462;51.456;7.248;2023-03-12T07:41:09;1.70;;;1.60;;
2934;SDS011;2462;51.456;7.248;2023-03-12T07:43:35;2.70;;;2.20;;
2934;SDS011;2462;51.456;7.248;2023-03-12T07:46:01;3.67;;;2.10;;
2934;SDS011;2462;51.456;7.248;2023-03-12T07:48:27;2.30;;;2.10;;
2934;SDS011;2462;51.456;7.248;2023-03-12T07:50:53;2.60;;;2.10;;
2934;SDS011;2462;51.456;7.248;2023-03-12T07:53:19;2.50;;;1.90;;
2934;SDS011;2462;51.456;7.248;2023-03-12T07:55:45;2.50;;;2.27;;
2934;SDS011;2462;51.456;7.248;2023-03-12T07:58:12;4.10;;;2.23;;
2934;SDS011;2462;51.456;7.248;2023-03-12T08:00:39;2.90;;;2.60;;
2934;SDS011;2462;51.456;7.248;2023-03-12T08:03:05;2.40;;;1.90;;
2934;SDS011;2462;51.456;7.248;2023-03-12T08:05:31;2.10;;;2.00;;
2934;SDS011;2462;51.456;7.248;2023-03-12T08:07:57;3.07;;;2.50;;
2934;SDS011;2462;51.456;7.248;2023-03-12T08:10:23;3.30;;;2.50;;
2934;SDS011;2462;51.456;7.248;2023-03-12T08:12:49;2.00;;;1.90;;
2934;SDS011;2462;51.456;7.248;2023-03-12T08:15:15;2.50;;;1.90;;
2934;SDS011;2462;51.456;7.248;2023-03-12T08:17:41;2.50;;;2.30;;
2934;SDS011;2462;51.456;7.248;2023-03-12T08:20:08;2.67;;;1.90;;
2934;SDS011;2462;51.456;7.248;2023-03-12T08:22:35;2.90;;;2.30;;
2934;SDS011;2462;51.456;7.248;2023-03-12T08:25:01;2.50;;;2.13;;
2934;SDS011;2462;51.456;7.248;2023-03-12T08:27:27;2.40;;;2.20;;
2934;SDS011;2462;51.456;7.248;2023-03-12T08:29:54;3.63;;;2.17;;
2934;SDS011;2462;51.456;7.248;2023-03-12T08:32:20;2.90;;;2.13;;
2934;SDS011;2462;51.456;7.248;2023-03-12T08:34:46;2.20;;;2.00;;
2934;SDS011;2462;51.456;7.248;2023-03-12T08:37:12;3.10;;;2.40;;
2934;SDS011;2462;51.456;7.248;2023-03-12T08:39:38;3.63;;;2.37;;
2934;SDS011;2462;51.456;7.248;2023-03-12T08:42:04;2.30;;;2.10;;
2934;SDS011;2462;51.456;7.248;2023-03-12T08:44:31;2.07;;;1.87;;
2934;SDS011;2462;51.456;7.248;2023-03-12T08:46:57;2.37;;;2.17;;
2934;SDS011;2462;51.456;7.248;2023-03-12T08:49:23;2.43;;;2.23;;
2934;SDS011;2462;51.456;7.248;2023-03-12T08:51:49;2.63;;;1.90;;
2934;SDS011;2462;51.456;7.248;2023-03-12T08:54:16;3.30;;;2.27;;
2934;SDS011;2462;51.456;7.248;2023-03-12T08:56:42;3.73;;;2.00;;
2934;SDS011;2462;51.456;7.248;2023-03-12T08:59:09;2.50;;;2.30;;
2934;SDS011;2462;51.456;7.248;2023-03-12T09:01:35;2.27;;;2.07;;
2934;SDS011;2462;51.456;7.248;2023-03-12T09:04:02;3.00;;;2.27;;
2934;SDS011;2462;51.456;7.248;2023-03-12T09:06:28;3.10;;;2.00;;
2934;SDS011;2462;51.456;7.248;2023-03-12T09:08:54;3.27;;;1.87;;
2934;SDS011;2462;51.456;7.248;2023-03-12T09:11:20;2.33;;;2.13;;
2934;SDS011;2462;51.456;7.248;2023-03-12T09:13:46;2.57;;;2.37;;
2934;SDS011;2462;51.456;7.248;2023-03-12T09:16:12;2.97;;;2.47;;
2934;SDS011;2462;51.456;7.248;2023-03-12T09:18:38;2.20;;;2.10;;
2934;SDS011;2462;51.456;7.248;2023-03-12T09:21:04;2.63;;;2.43;;
2934;SDS011;2462;51.456;7.248;2023-03-12T09:23:31;1.70;;;1.60;;
2934;SDS011;2462;51.456;7.248;2023-03-12T09:25:57;2.30;;;2.10;;
2934;SDS011;2462;51.456;7.248;2023-03-12T09:28:23;2.23;;;2.13;;
2934;SDS011;2462;51.456;7.248;2023-03-12T09:30:49;2.07;;;1.87;;
2934;SDS011;2462;51.456;7.248;2023-03-12T09:33:15;2.10;;;2.00;;
2934;SDS011;2462;51.456;7.248;2023-03-12T09:35:42;2.63;;;2.07;;
2934;SDS011;2462;51.456;7.248;2023-03-12T09:38:11;3.93;;;2.50;;
2934;SDS011;2462;51.456;7.248;2023-03-12T09:40:37;4.83;;;2.30;;
2934;SDS011;2462;51.456;7.248;2023-03-12T09:43:08;4.13;;;2.40;;
2934;SDS011;2462;51.456;7.248;2023-03-12T09:45:37;2.67;;;2.10;;
2934;SDS011;2462;51.456;7.248;2023-03-12T09:48:04;3.30;;;2.90;;
2934;SDS011;2462;51.456;7.248;2023-03-12T09:50:35;2.13;;;1.93;;
2934;SDS011;2462;51.456;7.248;2023-03-12T09:53:14;2.50;;;2.30;;
2934;SDS011;2462;51.456;7.248;2023-03-12T09:55:44;3.40;;;2.40;;
2934;SDS011;2462;51.456;7.248;2023-03-12T09:58:20;2.20;;;2.00;;
2934;SDS011;2462;51.456;7.248;2023-03-12T10:00:47;2.13;;;1.93;;
2934;SDS011;2462;51.456;7.248;2023-03-12T10:06:00;3.77;;;2.50;;
2934;SDS011;2462;51.456;7.248;2023-03-12T10:08:31;2.57;;;2.37;;
2934;SDS011;2462;51.456;7.248;2023-03-12T10:18:50;2.63;;;2.23;;
2934;SDS011;2462;51.456;7.248;2023-03-12T10:26:48;2.20;;;2.10;;
2934;SDS011;2462;51.456;7.248;2023-03-12T10:29:15;2.90;;;2.10;;
2934;SDS011;2462;51.456;7.248;2023-03-12T10:31:50;2.37;;;2.17;;
2934;SDS011;2462;51.456;7.248;2023-03-12T10:34:59;1.90;;;1.67;;
2934;SDS011;2462;51.456;7.248;2023-03-12T10:37:25;1.80;;;1.70;;
2934;SDS011;2462;51.456;7.248;2023-03-12T10:39:53;2.53;;;2.33;;
2934;SDS011;2462;51.456;7.248;2023-03-12T10:42:21;2.00;;;1.90;;
2934;SDS011;2462;51.456;7.248;2023-03-12T10:44:54;2.10;;;1.90;;
2934;SDS011;2462;51.456;7.248;2023-03-12T10:47:40;2.20;;;2.00;;
2934;SDS011;2462;51.456;7.248;2023-03-12T10:50:25;2.40;;;2.20;;
2934;SDS011;2462;51.456;7.248;2023-03-12T10:52:52;3.00;;;2.03;;
2934;SDS011;2462;51.456;7.248;2023-03-12T10:57:45;2.30;;;2.07;;
2934;SDS011;2462;51.456;7.248;2023-03-12T11:02:46;2.10;;;2.00;;
2934;SDS011;2462;51.456;7.248;2023-03-12T11:05:21;2.23;;;2.03;;
2934;SDS011;2462;51.456;7.248;2023-03-12T11:07:47;2.07;;;1.93;;
2934;SDS011;2462;51.456;7.248;2023-03-12T11:10:21;2.60;;;1.70;;
2934;SDS011;2462;51.456;7.248;2023-03-12T11:12:52;2.63;;;1.87;;
2934;SDS011;2462;51.456;7.248;2023-03-12T11:17:45;3.93;;;1.87;;
2934;SDS011;2462;51.456;7.248;2023-03-12T11:20:17;2.13;;;1.93;;
2934;SDS011;2462;51.456;7.248;2023-03-12T11:22:49;2.30;;;2.00;;
2934;SDS011;2462;51.456;7.248;2023-03-12T11:25:33;1.90;;;1.80;;
2934;SDS011;2462;51.456;7.248;2023-03-12T11:27:59;1.73;;;1.63;;
2934;SDS011;2462;51.456;7.248;2023-03-12T11:30:31;2.33;;;2.13;;
2934;SDS011;2462;51.456;7.248;2023-03-12T11:33:02;2.10;;;2.00;;
2934;SDS011;2462;51.456;7.248;2023-03-12T11:35:33;2.07;;;1.93;;
2934;SDS011;2462;51.456;7.248;2023-03-12T11:38:09;4.33;;;2.10;;
2934;SDS011;2462;51.456;7.248;2023-03-12T11:51:06;2.17;;;2.07;;
2934;SDS011;2462;51.456;7.248;2023-03-12T11:53:42;1.90;;;1.80;;
2934;SDS011;2462;51.456;7.248;2023-03-12T11:56:28;1.90;;;1.70;;
2934;SDS011;2462;51.456;7.248;2023-03-12T12:14:28;2.07;;;1.77;;
2934;SDS011;2462;51.456;7.248;2023-03-12T12:17:00;1.80;;;1.50;;
2934;SDS011;2462;51.456;7.248;2023-03-12T12:19:38;2.03;;;1.93;;
2934;SDS011;2462;51.456;7.248;2023-03-12T12:27:28;2.37;;;1.83;;
2934;SDS011;2462;51.456;7.248;2023-03-12T12:40:04;1.50;;;1.40;;
2934;SDS011;2462;51.456;7.248;2023-03-12T12:42:38;1.90;;;1.60;;
2934;SDS011;2462;51.456;7.248;2023-03-12T12:45:09;1.77;;;1.60;;
2934;SDS011;2462;51.456;7.248;2023-03-12T12:47:48;1.90;;;1.80;;
2934;SDS011;2462;51.456;7.248;2023-03-12T12:50:19;1.80;;;1.70;;
2934;SDS011;2462;51.456;7.248;2023-03-12T12:52:59;2.53;;;1.60;;
2934;SDS011;2462;51.456;7.248;2023-03-12T12:55:31;2.00;;;1.73;;
2934;SDS011;2462;51.456;7.248;2023-03-12T12:58:01;2.20;;;2.10;;
2934;SDS011;2462;51.456;7.248;2023-03-12T13:00:36;1.73;;;1.47;;
2934;SDS011;2462;51.456;7.248;2023-03-12T13:03:05;2.03;;;1.80;;
2934;SDS011;2462;51.456;7.248;2023-03-12T13:05:44;2.40;;;1.77;;
2934;SDS011;2462;51.456;7.248;2023-03-12T13:13:42;1.60;;;1.50;;
2934;SDS011;2462;51.456;7.248;2023-03-12T13:18:56;2.00;;;1.80;;
2934;SDS011;2462;51.456;7.248;2023-03-12T13:21:37;2.00;;;1.90;;
2934;SDS011;2462;51.456;7.248;2023-03-12T13:31:53;2.27;;;1.83;;
2934;SDS011;2462;51.456;7.248;2023-03-12T13:36:46;2.20;;;1.77;;
2934;SDS011;2462;51.456;7.248;2023-03-12T13:41:46;1.87;;;1.60;;
2934;SDS011;2462;51.456;7.248;2023-03-12T13:49:40;2.40;;;2.20;;
2934;SDS011;2462;51.456;7.248;2023-03-12T13:52:18;2.10;;;1.80;;
2934;SDS011;2462;51.456;7.248;2023-03-12T13:54:46;2.33;;;1.90;;
2934;SDS011;2462;51.456;7.248;2023-03-12T13:57:22;2.17;;;1.97;;
2934;SDS011;2462;51.456;7.248;2023-03-12T13:59:50;2.50;;;2.30;;
2934;SDS011;2462;51.456;7.248;2023-03-12T14:02:20;2.30;;;2.10;;
2934;SDS011;2462;51.456;7.248;2023-03-12T14:04:48;2.50;;;2.17;;
2934;SDS011;2462;51.456;7.248;2023-03-12T14:09:50;3.23;;;2.93;;
2934;SDS011;2462;51.456;7.248;2023-03-12T14:12:29;4.80;;;3.20;;
2934;SDS011;2462;51.456;7.248;2023-03-12T14:15:05;3.67;;;3.03;;
2934;SDS011;2462;51.456;7.248;2023-03-12T14:17:33;4.27;;;3.07;;
2934;SDS011;2462;51.456;7.248;2023-03-12T14:20:02;3.37;;;3.07;;
2934;SDS011;2462;51.456;7.248;2023-03-12T14:22:33;2.80;;;2.57;;
2934;SDS011;2462;51.456;7.248;2023-03-12T14:25:02;3.87;;;3.20;;
2934;SDS011;2462;51.456;7.248;2023-03-12T14:27:31;2.93;;;2.63;;
2934;SDS011;2462;51.456;7.248;2023-03-12T14:32:39;4.03;;;3.23;;
2934;SDS011;2462;51.456;7.248;2023-03-12T14:35:12;3.27;;;3.00;;
2934;SDS011;2462;51.456;7.248;2023-03-12T14:37:40;3.37;;;2.90;;
2934;SDS011;2462;51.456;7.248;2023-03-12T14:42:43;3.23;;;3.00;;
2934;SDS011;2462;51.456;7.248;2023-03-12T14:45:11;3.13;;;2.83;;
2934;SDS011;2462;51.456;7.248;2023-03-12T14:47:38;4.40;;;3.13;;
2934;SDS011;2462;51.456;7.248;2023-03-12T14:50:05;3.40;;;2.87;;
2934;SDS011;2462;51.456;7.248;2023-03-12T14:52:31;3.00;;;2.60;;
2934;SDS011;2462;51.456;7.248;2023-03-12T14:57:24;6.00;;;2.90;;
2934;SDS011;2462;51.456;7.248;2023-03-12T14:59:51;4.57;;;3.10;;
2934;SDS011;2462;51.456;7.248;2023-03-12T15:02:18;3.60;;;2.97;;
2934;SDS011;2462;51.456;7.248;2023-03-12T15:04:45;3.10;;;2.70;;
2934;SDS011;2462;51.456;7.248;2023-03-12T15:07:12;3.77;;;2.93;;
2934;SDS011;2462;51.456;7.248;2023-03-12T15:09:41;4.23;;;3.10;;
2934;SDS011;2462;51.456;7.248;2023-03-12T15:12:19;4.93;;;2.60;;
2934;SDS011;2462;51.456;7.248;2023-03-12T15:14:46;3.80;;;3.33;;
2934;SDS011;2462;51.456;7.248;2023-03-12T15:17:14;2.53;;;2.33;;
2934;SDS011;2462;51.456;7.248;2023-03-12T15:19:40;4.13;;;2.80;;
2934;SDS011;2462;51.456;7.248;2023-03-12T15:22:12;3.30;;;3.00;;
2934;SDS011;2462;51.456;7.248;2023-03-12T15:24:39;5.50;;;3.03;;
2934;SDS011;2462;51.456;7.248;2023-03-12T15:27:19;4.23;;;3.23;;
2934;SDS011;2462;51.456;7.248;2023-03-12T15:29:45;2.93;;;2.70;;
2934;SDS011;2462;51.456;7.248;2023-03-12T15:32:15;3.93;;;3.27;;
2934;SDS011;2462;51.456;7.248;2023-03-12T15:34:44;3.53;;;2.37;;
2934;SDS011;2462;51.456;7.248;2023-03-12T15:39:43;5.33;;;3.00;;
2934;SDS011;2462;51.456;7.248;2023-03-12T15:42:14;4.10;;;2.83;;
2934;SDS011;2462;51.456;7.248;2023-03-12T15:44:47;5.33;;;2.37;;
2934;SDS011;2462;51.456;7.248;2023-03-12T15:47:17;5.10;;;2.90;;
2934;SDS011;2462;51.456;7.248;2023-03-12T15:49:47;4.20;;;2.80;;
2934;SDS011;2462;51.456;7.248;2023-03-12T15:54:43;4.30;;;2.73;;
2934;SDS011;2462;51.456;7.248;2023-03-12T15:57:23;4.43;;;2.70;;
2934;SDS011;2462;51.456;7.248;2023-03-12T16:02:48;4.07;;;2.20;;
2934;SDS011;2462;51.456;7.248;2023-03-12T16:05:15;3.80;;;2.80;;
2934;SDS011;2462;51.456;7.248;2023-03-12T16:07:41;6.10;;;3.73;;
2934;SDS011;2462;51.456;7.248;2023-03-12T16:10:10;4.63;;;3.17;;
2934;SDS011;2462;51.456;7.248;2023-03-12T16:12:38;7.10;;;3.10;;
2934;SDS011;2462;51.456;7.248;2023-03-12T16:15:04;7.30;;;2.90;;
2934;SDS011;2462;51.456;7.248;2023-03-12T16:17:30;3.60;;;2.63;;
2934;SDS011;2462;51.456;7.248;2023-03-12T16:19:56;4.60;;;2.93;;
2934;SDS011;2462;51.456;7.248;2023-03-12T16:22:22;3.90;;;3.00;;
2934;SDS011;2462;51.456;7.248;2023-03-12T16:24:49;3.40;;;2.47;;
2934;SDS011;2462;51.456;7.248;2023-03-12T16:27:14;4.70;;;3.23;;
2934;SDS011;2462;51.456;7.248;2023-03-12T16:29:41;4.60;;;2.70;;
2934;SDS011;2462;51.456;7.248;2023-03-12T16:32:08;4.93;;;3.20;;
2934;SDS011;2462;51.456;7.248;2023-03-12T16:34:35;5.10;;;2.83;;
2934;SDS011;2462;51.456;7.248;2023-03-12T16:37:01;5.30;;;3.27;;
2934;SDS011;2462;51.456;7.248;2023-03-12T16:39:27;5.03;;;2.40;;
2934;SDS011;2462;51.456;7.248;2023-03-12T16:41:57;4.33;;;2.77;;
2934;SDS011;2462;51.456;7.248;2023-03-12T16:44:23;4.40;;;2.83;;
2934;SDS011;2462;51.456;7.248;2023-03-12T16:46:51;3.00;;;2.70;;
2934;SDS011;2462;51.456;7.248;2023-03-12T16:49:17;3.40;;;2.63;;
2934;SDS011;2462;51.456;7.248;2023-03-12T16:51:44;4.23;;;2.83;;
2934;SDS011;2462;51.456;7.248;2023-03-12T16:54:11;4.77;;;3.20;;
2934;SDS011;2462;51.456;7.248;2023-03-12T16:56:37;4.87;;;2.63;;
2934;SDS011;2462;51.456;7.248;2023-03-12T16:59:05;4.80;;;3.07;;
2934;SDS011;2462;51.456;7.248;2023-03-12T17:01:32;4.87;;;3.90;;
2934;SDS011;2462;51.456;7.248;2023-03-12T17:03:58;3.20;;;2.80;;
2934;SDS011;2462;51.456;7.248;2023-03-12T17:06:25;4.17;;;2.73;;
2934;SDS011;2462;51.456;7.248;2023-03-12T17:08:52;5.73;;;2.80;;
2934;SDS011;2462;51.456;7.248;2023-03-12T17:11:25;3.67;;;2.77;;
2934;SDS011;2462;51.456;7.248;2023-03-12T17:13:55;6.93;;;3.20;;
2934;SDS011;2462;51.456;7.248;2023-03-12T17:16:22;4.03;;;2.40;;